Time;durP1;ratioP1;P1;durP2;ratioP2;P2;SDS_P1;SDS_P2;PMS_P1;PMS_P2;Temp;Humidity;BMP_temperature;BMP_pressure;BME280_temperature;BME280_humidity;BME280_pressure;Samples;Min_cycle;Max_cycle;Signal;HPM_P1;HPM_P2
2023/01/17 00:02:09;;;;;;;1.10;0.60;;;4.00;99.90;;;;;;4889935;29;20032;-79
2023/01/17 00:10:09;;;;;;;1.42;0.50;;;3.70;99.90;;;;;;4852906;29;20380;-79
2023/01/17 00:12:35;;;;;;;0.88;0.47;;;3.00;99.90;;;;;;4840436;29;20120;-79
2023/01/17 00:15:01;;;;;;;3.70;0.60;;;3.10;99.90;;;;;;4835033;29;20128;-79
2023/01/17 00:17:28;;;;;;;5.63;0.73;;;3.20;99.90;;;;;;4836551;29;20041;-79
2023/01/17 01:35:19;;;;;;;3.30;0.60;;;3.20;99.90;;;;;;4885252;29;20072;-79
2023/01/17 01:37:45;;;;;;;7.07;0.90;;;3.20;99.90;;;;;;4857479;29;20043;-79
2023/01/17 01:40:11;;;;;;;4.23;0.80;;;3.20;99.90;;;;;;4883925;29;20101;-79
2023/01/17 01:42:36;;;;;;;2.10;0.50;;;3.20;99.90;;;;;;4852169;29;20295;-79
2023/01/17 01:45:14;;;;;;;2.85;0.60;;;3.20;99.90;;;;;;4872800;29;20040;-79
2023/01/17 01:47:41;;;;;;;1.33;0.50;;;3.20;99.90;;;;;;4893011;29;20515;-79
2023/01/17 01:50:09;;;;;;;3.28;0.70;;;3.60;99.90;;;;;;4890923;29;20132;-79
2023/01/17 01:52:38;;;;;;;4.93;0.90;;;3.30;99.90;;;;;;4890872;29;20477;-80
2023/01/17 01:55:10;;;;;;;8.27;1.08;;;4.10;99.90;;;;;;4873448;29;20374;-80
2023/01/17 01:57:41;;;;;;;8.93;0.80;;;3.30;99.90;;;;;;4881965;29;20073;-80
2023/01/17 02:00:37;;;;;;;7.13;1.02;;;3.30;99.90;;;;;;4890439;29;20055;-80
2023/01/17 02:03:30;;;;;;;3.88;0.70;;;3.30;99.90;;;;;;4863844;29;20135;-80
2023/01/17 02:06:02;;;;;;;7.57;0.90;;;3.30;99.90;;;;;;4884208;29;20052;-80
2023/01/17 02:08:28;;;;;;;6.43;1.38;;;3.30;99.90;;;;;;4872436;29;20044;-80
2023/01/17 02:10:55;;;;;;;4.00;0.70;;;3.30;99.90;;;;;;4870030;29;20036;-80
2023/01/17 02:13:21;;;;;;;6.38;0.98;;;3.90;99.90;;;;;;4872607;29;20507;-80
2023/01/17 02:15:52;;;;;;;5.40;0.90;;;3.80;99.90;;;;;;4870555;29;20033;-80
2023/01/17 02:18:42;;;;;;;9.07;1.10;;;3.30;99.90;;;;;;4892759;29;20139;-80
2023/01/17 02:21:30;;;;;;;2.65;0.80;;;3.30;99.90;;;;;;4886419;29;20413;-80
2023/01/17 02:24:43;;;;;;;5.78;0.93;;;3.30;99.90;;;;;;4895290;29;20040;-79
2023/01/17 02:27:28;;;;;;;6.43;0.80;;;3.40;99.90;;;;;;4891006;29;20040;-80
2023/01/17 02:30:15;;;;;;;4.05;1.00;;;3.40;99.90;;;;;;4887009;29;20077;-80
2023/01/17 02:33:00;;;;;;;9.50;1.10;;;3.50;99.90;;;;;;4886339;29;20413;-80
2023/01/17 02:35:47;;;;;;;4.32;0.90;;;3.40;99.90;;;;;;4885344;29;20388;-80
2023/01/17 02:38:16;;;;;;;;;;;3.40;99.90;;;;;;4895753;29;20043;-80
2023/01/17 02:40:54;;;;;;;3.45;1.05;;;3.40;99.90;;;;;;4892300;29;20386;-80
2023/01/17 02:43:22;;;;;;;4.65;1.27;;;3.40;99.90;;;;;;4893895;29;20463;-80
2023/01/17 02:45:48;;;;;;;7.45;1.00;;;3.40;99.90;;;;;;4870259;29;20373;-80
2023/01/17 02:48:18;;;;;;;4.47;0.93;;;3.40;99.90;;;;;;4892318;29;20119;-81
2023/01/17 02:51:26;;;;;;;6.40;0.90;;;3.40;99.90;;;;;;4891238;29;20462;-80
2023/01/17 02:54:10;;;;;;;6.60;0.70;;;3.50;99.90;;;;;;4882838;29;20100;-81
2023/01/17 02:56:39;;;;;;;6.00;1.10;;;3.50;99.90;;;;;;4891083;29;20131;-80
2023/01/17 02:59:07;;;;;;;4.53;0.80;;;3.50;99.90;;;;;;4891211;29;20048;-81
2023/01/17 03:01:50;;;;;;;9.52;1.20;;;3.50;99.90;;;;;;4876237;29;20039;-81
2023/01/17 03:04:36;;;;;;;4.63;0.73;;;3.40;99.90;;;;;;4894021;29;20115;-81
2023/01/17 03:07:08;;;;;;;4.88;0.93;;;3.40;99.90;;;;;;4876067;29;20127;-81
2023/01/17 03:09:35;;;;;;;2.55;0.65;;;5.00;99.90;;;;;;4884606;29;20131;-81
2023/01/17 03:12:03;;;;;;;1.83;0.65;;;3.20;99.90;;;;;;4894894;29;20055;-81
2023/01/17 03:14:31;;;;;;;4.07;0.80;;;3.20;99.90;;;;;;4888867;29;20040;-81
2023/01/17 03:16:57;;;;;;;7.78;0.80;;;4.00;99.90;;;;;;4893429;29;20103;-81
2023/01/17 03:19:23;;;;;;;4.60;0.90;;;3.20;99.90;;;;;;4874133;29;20071;-81
2023/01/17 03:21:48;;;;;;;5.10;0.60;;;3.10;99.90;;;;;;4871624;29;20100;-81
2023/01/17 03:24:15;;;;;;;6.77;0.90;;;4.50;99.90;;;;;;4874744;29;20044;-81
2023/01/17 03:26:43;;;;;;;6.07;1.02;;;3.20;99.90;;;;;;4834665;29;20386;-81
2023/01/17 03:29:09;;;;;;;5.03;0.80;;;5.10;99.90;;;;;;4858767;29;20107;-81
2023/01/17 03:31:35;;;;;;;4.57;0.93;;;3.20;99.90;;;;;;4899714;29;20043;-81
2023/01/17 03:34:01;;;;;;;8.18;1.55;;;4.30;99.90;;;;;;4889660;29;20040;-81
2023/01/17 03:36:27;;;;;;;1.25;0.68;;;3.80;99.90;;;;;;4847836;29;20095;-81
2023/01/17 03:38:52;;;;;;;2.65;0.70;;;3.20;99.90;;;;;;4877162;29;20456;-81
2023/01/17 03:41:18;;;;;;;2.42;0.57;;;3.20;99.90;;;;;;4859807;29;20566;-81
2023/01/17 03:43:44;;;;;;;10.10;1.00;;;4.40;99.90;;;;;;4861574;29;20056;-81
2023/01/17 03:46:25;;;;;;;5.27;0.70;;;3.20;99.90;;;;;;4888565;29;20337;-81
2023/01/17 03:48:51;;;;;;;2.90;0.60;;;3.10;99.90;;;;;;4876120;29;20281;-81
2023/01/17 03:51:17;;;;;;;3.22;0.80;;;3.10;99.90;;;;;;4863467;29;20028;-81
2023/01/17 03:53:45;;;;;;;5.25;0.80;;;3.10;99.90;;;;;;4874848;29;20036;-81
2023/01/17 03:56:10;;;;;;;4.05;0.82;;;3.10;99.90;;;;;;4873131;29;20051;-79
2023/01/17 03:58:36;;;;;;;5.23;1.00;;;4.20;99.90;;;;;;4872851;29;20048;-79
2023/01/17 04:01:02;;;;;;;5.53;1.40;;;3.80;99.90;;;;;;4877119;29;20406;-80
2023/01/17 04:03:27;;;;;;;4.38;0.80;;;3.10;99.90;;;;;;4866625;29;20367;-80
2023/01/17 04:05:53;;;;;;;5.03;0.80;;;3.60;99.90;;;;;;4890795;29;20477;-80
2023/01/17 04:08:19;;;;;;;7.23;0.90;;;4.70;99.90;;;;;;4877062;29;20052;-80
2023/01/17 04:10:44;;;;;;;3.60;0.70;;;3.70;99.90;;;;;;4876919;29;20284;-80
2023/01/17 04:13:10;;;;;;;1.35;0.80;;;3.00;99.90;;;;;;4877483;29;20033;-80
2023/01/17 04:15:37;;;;;;;4.28;0.98;;;4.10;99.90;;;;;;4890702;29;20039;-80
2023/01/17 04:18:03;;;;;;;3.17;0.77;;;3.30;99.90;;;;;;4857640;29;20079;-80
2023/01/17 04:20:35;;;;;;;7.78;1.13;;;2.90;99.90;;;;;;4872758;29;20230;-80
2023/01/17 04:23:01;;;;;;;5.50;1.25;;;2.80;99.90;;;;;;4883650;29;20043;-80
2023/01/17 04:25:29;;;;;;;8.10;1.00;;;4.00;99.90;;;;;;4879450;29;20035;-80
2023/01/17 04:27:56;;;;;;;5.07;0.80;;;2.80;99.90;;;;;;4856937;29;20051;-79
2023/01/17 04:30:22;;;;;;;12.45;1.20;;;2.90;99.90;;;;;;4879486;29;20075;-80
2023/01/17 04:32:48;;;;;;;4.22;0.98;;;3.10;99.90;;;;;;4896596;29;20052;-81
2023/01/17 04:35:14;;;;;;;3.70;0.82;;;2.70;99.90;;;;;;4887950;29;20037;-81
2023/01/17 04:37:39;;;;;;;6.72;0.90;;;3.10;99.90;;;;;;4839703;29;20138;-80
2023/01/17 04:40:06;;;;;;;7.72;1.20;;;3.20;99.90;;;;;;4862616;29;20040;-81
2023/01/17 04:42:31;;;;;;;8.77;1.27;;;2.60;99.90;;;;;;4857173;29;20047;-81
2023/01/17 04:44:57;;;;;;;4.75;1.02;;;3.30;99.90;;;;;;4874261;29;20494;-80
2023/01/17 04:47:23;;;;;;;4.90;0.98;;;4.30;99.90;;;;;;4890228;29;20494;-80
2023/01/17 04:49:48;;;;;;;4.00;0.85;;;4.00;99.90;;;;;;4850626;29;20060;-81
2023/01/17 04:52:17;;;;;;;8.63;1.13;;;3.60;99.90;;;;;;4863276;29;20124;-80
2023/01/17 04:54:43;;;;;;;3.28;0.90;;;3.30;99.90;;;;;;4873736;29;20276;-81
2023/01/17 04:57:09;;;;;;;3.55;0.68;;;2.70;99.90;;;;;;4848921;29;20044;-80
2023/01/17 04:59:34;;;;;;;5.53;0.75;;;3.40;99.90;;;;;;4881594;29;20104;-81
2023/01/17 05:02:00;;;;;;;3.47;0.87;;;3.50;99.90;;;;;;4878537;29;20055;-80
2023/01/17 05:04:26;;;;;;;3.67;0.60;;;4.30;99.90;;;;;;4853842;29;20808;-81
2023/01/17 05:06:51;;;;;;;2.53;0.60;;;3.80;99.90;;;;;;4886912;29;20304;-81
2023/01/17 05:09:17;;;;;;;3.22;0.60;;;2.40;99.90;;;;;;4855860;29;20143;-80
2023/01/17 05:11:43;;;;;;;7.90;1.35;;;2.40;99.90;;;;;;4862750;29;20040;-81
2023/01/17 05:14:09;;;;;;;5.70;0.75;;;3.30;99.90;;;;;;4859285;29;20040;-81
2023/01/17 05:16:35;;;;;;;4.38;0.52;;;2.30;99.90;;;;;;4871592;29;20405;-81
2023/01/17 05:19:01;;;;;;;3.53;0.70;;;2.30;99.90;;;;;;4869739;29;20044;-80
2023/01/17 05:21:27;;;;;;;3.55;1.05;;;2.20;99.90;;;;;;4853754;29;20041;-80
2023/01/17 05:23:52;;;;;;;3.80;0.70;;;4.40;99.90;;;;;;4857399;29;20041;-80
2023/01/17 05:26:18;;;;;;;3.40;0.80;;;3.00;99.90;;;;;;4838849;29;20045;-80
2023/01/17 05:28:44;;;;;;;3.58;1.25;;;3.10;99.90;;;;;;4892125;29;20039;-80
2023/01/17 05:31:10;;;;;;;3.30;1.03;;;2.00;99.90;;;;;;4870159;29;20051;-80
2023/01/17 05:33:35;;;;;;;1.88;0.70;;;2.00;99.90;;;;;;4868718;29;20041;-80
2023/01/17 05:36:02;;;;;;;2.17;0.70;;;3.40;99.90;;;;;;4873237;29;20458;-79
2023/01/17 05:38:28;;;;;;;3.65;0.82;;;1.90;99.90;;;;;;4888619;29;20079;-79
2023/01/17 05:40:54;;;;;;;4.38;0.80;;;2.40;99.90;;;;;;4890487;29;20087;-80
2023/01/17 05:43:20;;;;;;;5.65;0.75;;;1.90;99.90;;;;;;4869710;29;20124;-80
2023/01/17 05:45:48;;;;;;;3.22;0.70;;;1.90;99.90;;;;;;4880311;29;20103;-79
2023/01/17 05:48:14;;;;;;;3.72;0.90;;;3.30;99.90;;;;;;4890351;29;20049;-79
2023/01/17 05:50:39;;;;;;;2.80;0.50;;;1.90;99.90;;;;;;4856990;29;20055;-79
2023/01/17 05:53:08;;;;;;;1.83;0.57;;;3.80;99.90;;;;;;4886243;29;20749;-80
2023/01/17 05:55:35;;;;;;;5.70;0.90;;;2.40;99.90;;;;;;4884778;29;20618;-80
2023/01/17 05:58:00;;;;;;;;;;;1.90;99.90;;;;;;4856683;29;20041;-80
2023/01/17 06:00:26;;;;;;;7.22;0.93;;;3.10;99.90;;;;;;4859319;29;19930;-81
2023/01/17 06:02:53;;;;;;;1.77;0.55;;;1.90;99.90;;;;;;4875237;29;20032;-81
2023/01/17 06:05:20;;;;;;;4.80;1.02;;;3.70;99.90;;;;;;4870719;29;20095;-81
2023/01/17 06:07:46;;;;;;;;;;;1.80;99.90;;;;;;4876882;29;20127;-81
2023/01/17 06:10:16;;;;;;;2.83;1.10;;;1.80;99.90;;;;;;4860385;29;19982;-81
2023/01/17 06:12:43;;;;;;;5.47;0.95;;;1.70;99.90;;;;;;4894841;29;20100;-81
2023/01/17 06:15:11;;;;;;;5.05;1.02;;;1.80;99.90;;;;;;4878420;29;20044;-82
2023/01/17 06:17:37;;;;;;;4.78;0.82;;;1.80;99.90;;;;;;4892877;29;20064;-82
2023/01/17 06:20:04;;;;;;;5.05;1.02;;;1.70;99.90;;;;;;4859879;29;20056;-82
2023/01/17 06:22:31;;;;;;;3.28;0.70;;;1.70;99.90;;;;;;4860180;29;20040;-81
2023/01/17 06:24:56;;;;;;;5.68;1.50;;;1.70;99.90;;;;;;4875220;29;20076;-82
2023/01/17 06:27:22;;;;;;;6.30;0.90;;;3.80;99.90;;;;;;4859235;29;20044;-82
2023/01/17 06:29:48;;;;;;;6.50;1.05;;;1.60;99.90;;;;;;4879168;29;20289;-82
2023/01/17 06:32:14;;;;;;;4.95;0.70;;;3.90;99.90;;;;;;4891080;29;20043;-82
2023/01/17 06:34:40;;;;;;;1.75;0.65;;;3.60;99.90;;;;;;4842413;29;20099;-83
2023/01/17 06:37:06;;;;;;;5.10;0.80;;;1.50;99.90;;;;;;4894059;29;20053;-82
2023/01/17 06:39:31;;;;;;;4.40;1.05;;;1.40;99.90;;;;;;4858936;29;20166;-82
2023/01/17 06:41:58;;;;;;;2.80;0.83;;;3.40;99.90;;;;;;4891994;29;20044;-83
2023/01/17 06:44:25;;;;;;;;;;;1.40;99.90;;;;;;4876261;29;20289;-82
2023/01/17 06:46:51;;;;;;;3.90;0.82;;;1.80;99.90;;;;;;4874027;29;19923;-82
2023/01/17 06:49:17;;;;;;;2.50;0.98;;;2.10;99.90;;;;;;4890669;29;20405;-82
2023/01/17 06:51:43;;;;;;;2.03;0.75;;;1.70;99.90;;;;;;4878063;29;20036;-82
2023/01/17 06:54:08;;;;;;;3.03;0.73;;;1.20;99.90;;;;;;4890901;29;20532;-82
2023/01/17 06:56:35;;;;;;;6.20;0.98;;;1.20;99.90;;;;;;4859750;29;20109;-82
2023/01/17 06:59:01;;;;;;;3.47;0.70;;;1.20;99.90;;;;;;4876964;29;20080;-83
2023/01/17 07:01:26;;;;;;;6.22;0.80;;;1.20;99.90;;;;;;4861253;29;20556;-82
2023/01/17 07:03:52;;;;;;;2.92;0.88;;;1.90;99.90;;;;;;4891430;29;20085;-82
2023/01/17 07:06:18;;;;;;;1.70;0.68;;;1.10;99.90;;;;;;4875733;29;20413;-82
2023/01/17 07:08:44;;;;;;;2.85;1.05;;;1.10;99.90;;;;;;4875840;29;20048;-83
2023/01/17 07:11:10;;;;;;;4.10;0.95;;;1.10;99.90;;;;;;4876104;29;20044;-83
2023/01/17 07:13:36;;;;;;;5.03;0.90;;;1.10;99.90;;;;;;4860298;29;20047;-82
2023/01/17 07:16:03;;;;;;;;;;;1.00;99.90;;;;;;4875240;29;20044;-82
2023/01/17 07:18:29;;;;;;;3.72;0.93;;;1.20;99.90;;;;;;4893720;29;19919;-82
2023/01/17 07:20:55;;;;;;;4.40;0.60;;;0.60;99.90;;;;;;4889261;29;20036;-82
2023/01/17 07:23:23;;;;;;;4.57;0.70;;;1.00;99.90;;;;;;4892462;29;20385;-83
2023/01/17 07:25:52;;;;;;;5.97;0.77;;;2.40;99.90;;;;;;4877702;29;20071;-82
2023/01/17 07:28:18;;;;;;;2.38;0.60;;;0.90;99.90;;;;;;4888734;29;20044;-82
2023/01/17 07:30:44;;;;;;;3.45;0.98;;;1.20;99.90;;;;;;4873443;29;20036;-83
2023/01/17 07:33:10;;;;;;;3.10;0.80;;;1.90;99.90;;;;;;4859337;29;20437;-82
2023/01/17 07:35:36;;;;;;;3.33;0.70;;;0.90;99.90;;;;;;4888298;29;20097;-82
2023/01/17 07:38:02;;;;;;;3.53;0.73;;;2.90;99.90;;;;;;4889467;29;20091;-82
2023/01/17 07:40:28;;;;;;;6.63;1.75;;;0.90;99.90;;;;;;4875400;29;20048;-82
2023/01/17 07:43:00;;;;;;;2.92;0.80;;;2.80;99.90;;;;;;4890756;29;20048;-82
2023/01/17 07:45:26;;;;;;;5.97;0.95;;;1.20;99.90;;;;;;4890069;29;20048;-82
2023/01/17 07:47:52;;;;;;;0.88;0.57;;;1.90;99.90;;;;;;4890430;29;20032;-83
2023/01/17 07:50:18;;;;;;;2.28;0.90;;;0.90;99.90;;;;;;4843687;29;20036;-82
2023/01/17 07:52:48;;;;;;;6.95;0.98;;;1.00;99.90;;;;;;4876823;29;20497;-82
2023/01/17 07:55:14;;;;;;;2.55;0.70;;;1.00;99.90;;;;;;4858937;29;20489;-82
2023/01/17 07:57:40;;;;;;;2.88;0.90;;;1.00;99.90;;;;;;4874777;29;20052;-82
2023/01/17 08:00:06;;;;;;;5.60;0.90;;;1.00;99.90;;;;;;4874381;29;20054;-82
2023/01/17 08:02:32;;;;;;;4.30;1.48;;;1.00;99.90;;;;;;4858560;29;20192;-82
2023/01/17 08:04:58;;;;;;;5.80;1.00;;;1.00;99.90;;;;;;4861343;29;20123;-83
2023/01/17 08:07:24;;;;;;;3.90;0.80;;;1.00;99.90;;;;;;4872469;29;20120;-82
2023/01/17 08:09:49;;;;;;;3.88;0.75;;;2.10;99.90;;;;;;4889593;29;20110;-83
2023/01/17 08:12:16;;;;;;;3.20;0.80;;;1.00;99.90;;;;;;4871397;29;20037;-82
2023/01/17 08:14:41;;;;;;;1.42;0.80;;;2.20;99.90;;;;;;4874744;29;20039;-82
2023/01/17 08:17:16;;;;;;;4.22;1.50;;;1.10;99.90;;;;;;4858668;29;20041;-82
2023/01/17 08:19:42;;;;;;;4.88;1.17;;;1.10;99.90;;;;;;4871639;29;20060;-82
2023/01/17 08:22:08;;;;;;;3.55;0.80;;;2.70;99.90;;;;;;4869212;29;20055;-82
2023/01/17 08:24:34;;;;;;;3.80;0.50;;;2.30;99.90;;;;;;4875963;29;20043;-82
2023/01/17 08:26:59;;;;;;;8.05;0.82;;;1.10;99.90;;;;;;4873662;29;20048;-82
2023/01/17 08:29:25;;;;;;;3.60;0.80;;;1.30;99.90;;;;;;4876557;29;20119;-82
2023/01/17 08:31:51;;;;;;;6.40;0.82;;;1.50;99.90;;;;;;4890047;29;20032;-83
2023/01/17 08:34:17;;;;;;;2.35;0.90;;;1.60;99.90;;;;;;4889262;29;20041;-82
2023/01/17 08:36:43;;;;;;;1.42;0.77;;;1.80;99.90;;;;;;4859895;29;20366;-83
2023/01/17 08:39:10;;;;;;;5.18;1.10;;;2.90;99.90;;;;;;4860857;29;20062;-83
2023/01/17 08:41:36;;;;;;;3.33;0.90;;;2.50;99.90;;;;;;4884763;29;20052;-83
2023/01/17 08:44:01;;;;;;;4.35;1.00;;;3.10;99.90;;;;;;4886540;29;20051;-82
2023/01/17 08:46:30;;;;;;;3.60;0.80;;;3.70;99.90;;;;;;4875778;29;20080;-83
2023/01/17 08:48:58;;;;;;;2.28;0.90;;;5.10;99.90;;;;;;4873917;29;20285;-82
2023/01/17 08:51:25;;;;;;;4.93;0.80;;;4.80;99.90;;;;;;4841403;29;20398;-82
2023/01/17 08:53:52;;;;;;;4.57;0.80;;;5.20;99.90;;;;;;4873159;29;20036;-83
2023/01/17 08:56:18;;;;;;;5.45;1.00;;;6.00;99.90;;;;;;4886898;29;20095;-80
2023/01/17 08:58:44;;;;;;;2.42;0.60;;;6.00;99.90;;;;;;4860164;29;20118;-83
2023/01/17 09:01:09;;;;;;;1.52;0.52;;;6.40;99.90;;;;;;4873550;29;20049;-81
2023/01/17 09:03:35;;;;;;;8.23;1.10;;;6.70;99.90;;;;;;4888887;29;20500;-81
2023/01/17 09:06:06;;;;;;;1.23;0.50;;;7.00;99.90;;;;;;4873128;29;20052;-81
2023/01/17 09:08:32;;;;;;;2.17;0.63;;;7.40;99.90;;;;;;4888467;29;20560;-81
2023/01/17 09:11:02;;;;;;;2.25;0.55;;;7.50;99.90;;;;;;4888392;29;20128;-81
2023/01/17 09:13:28;;;;;;;2.40;0.50;;;7.80;99.90;;;;;;4887592;29;20041;-81
2023/01/17 09:15:58;;;;;;;3.13;0.70;;;7.80;99.90;;;;;;4857310;29;20068;-81
2023/01/17 09:18:25;;;;;;;3.53;0.60;;;8.10;99.90;;;;;;4872882;29;20038;-81
2023/01/17 09:20:57;;;;;;;2.72;0.73;;;8.30;99.90;;;;;;4872942;29;20175;-81
2023/01/17 09:23:25;;;;;;;2.70;0.50;;;8.40;99.90;;;;;;4883491;29;20036;-81
2023/01/17 09:25:58;;;;;;;4.75;0.70;;;8.50;99.90;;;;;;4873773;29;20037;-81
2023/01/17 09:28:25;;;;;;;1.95;0.82;;;8.70;99.90;;;;;;4886828;29;20036;-81
2023/01/17 09:30:52;;;;;;;4.38;0.60;;;8.70;99.90;;;;;;4859358;29;20506;-81
2023/01/17 09:33:18;;;;;;;;;;;8.90;99.90;;;;;;4874273;29;20486;-81
2023/01/17 09:35:45;;;;;;;1.88;0.70;;;9.00;99.90;;;;;;4889862;29;19929;-81
2023/01/17 09:38:11;;;;;;;3.25;0.60;;;9.20;99.90;;;;;;4873334;29;20493;-81
2023/01/17 09:40:40;;;;;;;;;;;9.40;99.90;;;;;;4872951;29;20481;-81
2023/01/17 09:43:24;;;;;;;2.97;0.70;;;9.50;99.90;;;;;;4888439;29;19962;-81
2023/01/17 09:45:50;;;;;;;6.95;0.85;;;9.50;99.90;;;;;;4890921;29;20067;-81
2023/01/17 09:48:38;;;;;;;3.50;0.70;;;9.60;99.90;;;;;;4851663;29;20041;-81
2023/01/17 09:51:25;;;;;;;3.20;0.50;;;9.00;99.90;;;;;;4855907;29;20080;-81
2023/01/17 09:53:52;;;;;;;3.90;0.60;;;7.60;99.90;;;;;;4884779;29;20033;-81
2023/01/17 09:56:28;;;;;;;1.75;0.40;;;6.60;99.90;;;;;;4856073;29;20642;-80
2023/01/17 09:59:33;;;;;;;0.68;0.47;;;6.50;99.90;;;;;;4886504;29;20036;-81
2023/01/17 10:02:04;;;;;;;4.28;0.47;;;5.70;99.90;;;;;;4885440;29;20056;-80
2023/01/17 10:04:36;;;;;;;0.75;0.30;;;6.10;99.90;;;;;;4875022;29;20100;-81
2023/01/17 10:07:11;;;;;;;1.35;0.40;;;6.50;99.90;;;;;;4874539;29;20043;-81
2023/01/17 10:10:01;;;;;;;1.73;0.68;;;6.30;99.90;;;;;;4874170;29;20131;-81
2023/01/17 10:12:46;;;;;;;1.38;0.30;;;6.50;99.90;;;;;;4888240;29;20486;-81
2023/01/17 10:15:23;;;;;;;1.88;0.35;;;7.20;99.90;;;;;;4870287;29;20039;-81
2023/01/17 10:17:59;;;;;;;1.08;0.30;;;7.70;99.90;;;;;;4874611;29;20481;-81
2023/01/17 10:21:04;;;;;;;1.75;0.45;;;8.40;99.90;;;;;;4890420;29;20135;-81
2023/01/17 10:23:54;;;;;;;2.28;0.73;;;8.60;99.90;;;;;;4868645;29;20045;-81
2023/01/17 10:26:24;;;;;;;1.55;0.35;;;9.00;99.90;;;;;;4888074;29;20120;-81
2023/01/17 10:28:53;;;;;;;1.67;0.50;;;9.50;99.90;;;;;;4886134;29;20458;-82
2023/01/17 10:31:23;;;;;;;1.38;0.43;;;9.80;99.90;;;;;;4886470;29;20088;-81
2023/01/17 10:34:20;;;;;;;2.03;0.43;;;10.00;99.90;;;;;;4888235;29;20107;-81
2023/01/17 10:36:52;;;;;;;2.63;0.40;;;9.70;99.90;;;;;;4871872;29;20052;-81
2023/01/17 10:39:22;;;;;;;1.48;0.30;;;9.90;99.90;;;;;;4872320;29;20047;-81
2023/01/17 10:42:13;;;;;;;1.75;0.50;;;10.30;99.90;;;;;;4874162;29;20044;-81
2023/01/17 10:44:49;;;;;;;2.25;0.40;;;10.70;99.90;;;;;;4871667;29;20115;-82
2023/01/17 10:47:21;;;;;;;2.78;0.50;;;10.90;99.90;;;;;;4888318;29;20103;-81
2023/01/17 10:49:51;;;;;;;1.95;0.40;;;11.10;99.90;;;;;;4890128;29;20123;-81
2023/01/17 10:52:20;;;;;;;1.20;0.50;;;10.70;99.90;;;;;;4872851;29;20123;-81
2023/01/17 10:55:07;;;;;;;2.05;0.55;;;10.80;99.90;;;;;;4888096;29;20374;-81
2023/01/17 10:57:42;;;;;;;1.85;0.32;;;11.20;99.90;;;;;;4888399;29;20044;-81
2023/01/17 11:00:28;;;;;;;1.95;0.30;;;11.00;99.90;;;;;;4888169;29;20040;-81
2023/01/17 11:02:54;;;;;;;2.22;0.40;;;11.50;99.90;;;;;;4873645;29;20123;-81
2023/01/17 11:05:24;;;;;;;2.65;0.47;;;11.60;99.90;;;;;;4875466;29;20118;-81
2023/01/17 11:07:57;;;;;;;2.28;0.38;;;11.60;99.90;;;;;;4891343;29;20469;-81
2023/01/17 11:10:53;;;;;;;0.77;0.40;;;11.70;99.90;;;;;;4872841;29;20056;-81
2023/01/17 11:13:21;;;;;;;2.60;0.65;;;12.20;99.90;;;;;;4876042;29;20036;-81
2023/01/17 11:15:50;;;;;;;3.85;0.60;;;12.20;99.90;;;;;;4877793;29;20040;-81
2023/01/17 11:18:18;;;;;;;3.75;0.88;;;12.80;99.90;;;;;;4891375;29;20568;-81
2023/01/17 11:20:45;;;;;;;2.00;0.52;;;13.30;99.90;;;;;;4891775;29;20051;-82
2023/01/17 11:23:16;;;;;;;;;;;13.60;99.90;;;;;;4876367;29;20107;-82
2023/01/17 11:26:01;;;;;;;1.90;0.50;;;14.20;99.90;;;;;;4872252;29;20361;-81
2023/01/17 11:28:32;;;;;;;3.63;0.70;;;14.20;99.90;;;;;;4891369;29;20123;-81
2023/01/17 11:31:07;;;;;;;4.25;1.10;;;14.50;99.90;;;;;;4874799;29;20454;-80
2023/01/17 11:33:55;;;;;;;3.00;0.55;;;14.20;99.90;;;;;;4873184;29;20036;-81
2023/01/17 11:36:27;;;;;;;4.10;0.73;;;14.20;99.90;;;;;;4891267;29;20040;-80
2023/01/17 11:39:02;;;;;;;2.92;0.73;;;14.30;99.90;;;;;;4888759;29;20051;-81
2023/01/17 11:41:34;;;;;;;3.60;0.60;;;14.50;99.90;;;;;;4888197;29;20448;-81
2023/01/17 11:44:02;;;;;;;3.72;0.70;;;14.70;99.90;;;;;;4888333;29;20052;-80
2023/01/17 11:46:28;;;;;;;3.97;0.82;;;14.60;99.90;;;;;;4890065;29;20115;-80
2023/01/17 11:48:58;;;;;;;;;;;14.50;99.90;;;;;;4889982;29;20033;-80
2023/01/17 11:51:38;;;;;;;2.58;0.60;;;14.20;99.90;;;;;;4890950;29;19919;-80
2023/01/17 11:54:37;;;;;;;3.25;0.75;;;14.50;99.90;;;;;;4888823;29;20043;-80
2023/01/17 11:57:05;;;;;;;2.90;0.80;;;14.00;99.90;;;;;;4888978;29;20048;-80
2023/01/17 11:59:36;;;;;;;3.15;0.77;;;13.30;99.90;;;;;;4890542;29;20092;-80
2023/01/17 12:02:20;;;;;;;4.47;0.88;;;12.50;99.90;;;;;;4868633;29;20058;-80
2023/01/17 12:05:14;;;;;;;1.63;0.60;;;12.90;99.90;;;;;;4887768;29;20040;-80
2023/01/17 12:07:50;;;;;;;3.22;0.75;;;13.20;99.90;;;;;;4873867;29;20047;-80
2023/01/17 12:10:25;;;;;;;1.77;0.70;;;13.30;99.90;;;;;;4885821;29;20060;-80
2023/01/17 12:15:53;;;;;;;3.35;0.55;;;13.30;99.90;;;;;;4888814;29;20505;-80
2023/01/17 12:18:19;;;;;;;2.53;0.60;;;13.80;99.90;;;;;;4875815;29;20547;-80
2023/01/17 12:21:21;;;;;;;3.60;0.60;;;13.90;99.90;;;;;;4888030;29;20120;-80
2023/01/17 12:23:59;;;;;;;2.85;0.60;;;14.00;99.90;;;;;;4887594;29;20119;-80
2023/01/17 12:26:34;;;;;;;3.10;0.70;;;13.90;99.90;;;;;;4887549;29;20072;-80
2023/01/17 12:29:36;;;;;;;2.53;0.63;;;14.00;99.90;;;;;;4887400;29;20096;-80
2023/01/17 12:32:19;;;;;;;3.00;0.70;;;14.10;99.90;;;;;;4832763;29;20137;-80
2023/01/17 12:35:02;;;;;;;4.43;0.70;;;14.40;99.90;;;;;;4868930;29;20455;-81
2023/01/17 12:37:35;;;;;;;1.98;0.60;;;14.60;99.90;;;;;;4889748;29;20067;-81
2023/01/17 12:40:36;;;;;;;2.13;0.80;;;14.70;99.90;;;;;;4876199;29;20157;-80
2023/01/17 12:43:07;;;;;;;5.88;0.70;;;14.50;99.60;;;;;;4886748;29;20051;-80
2023/01/17 12:45:39;;;;;;;4.03;0.80;;;14.20;99.90;;;;;;4886225;29;20478;-80
2023/01/17 12:48:11;;;;;;;3.55;1.02;;;14.30;99.90;;;;;;4887071;29;20083;-80
2023/01/17 12:50:49;;;;;;;3.90;1.08;;;14.40;99.90;;;;;;4889259;29;20494;-80
2023/01/17 12:53:24;;;;;;;5.45;1.13;;;14.40;99.90;;;;;;4890195;29;20426;-80
2023/01/17 12:55:49;;;;;;;3.72;0.60;;;14.40;99.90;;;;;;4879030;29;20049;-80
2023/01/17 12:58:21;;;;;;;4.78;0.80;;;14.20;99.90;;;;;;4873829;29;20119;-80
2023/01/17 13:00:54;;;;;;;3.85;0.70;;;14.00;99.90;;;;;;4872730;29;20037;-80
2023/01/17 13:03:30;;;;;;;3.08;0.63;;;12.90;99.90;;;;;;4889520;29;20075;-80
2023/01/17 13:05:58;;;;;;;3.42;0.60;;;12.10;99.90;;;;;;4891573;29;20048;-80
2023/01/17 13:08:40;;;;;;;2.33;0.50;;;11.50;99.90;;;;;;4887232;29;20051;-79
2023/01/17 13:11:24;;;;;;;2.38;0.45;;;10.60;99.90;;;;;;4888161;29;20119;-80
2023/01/17 13:13:51;;;;;;;1.13;0.40;;;10.30;99.90;;;;;;4888687;29;20036;-79
2023/01/17 13:16:25;;;;;;;3.70;0.50;;;9.90;99.90;;;;;;4857681;29;20120;-79
2023/01/17 13:18:51;;;;;;;1.40;0.55;;;9.60;99.90;;;;;;4888308;29;20048;-80
2023/01/17 13:21:28;;;;;;;3.72;0.68;;;9.40;99.90;;;;;;4890952;29;20123;-79
2023/01/17 13:24:00;;;;;;;0.73;0.30;;;9.30;99.90;;;;;;4886446;29;20071;-79
2023/01/17 13:26:44;;;;;;;1.70;0.47;;;9.20;99.90;;;;;;4873433;29;20086;-79
2023/01/17 13:29:31;;;;;;;2.28;0.60;;;9.10;99.90;;;;;;4890553;29;20127;-79
2023/01/17 13:32:19;;;;;;;2.15;0.65;;;9.00;99.90;;;;;;4867858;29;20048;-79
2023/01/17 13:34:47;;;;;;;;;;;8.90;99.90;;;;;;4888500;29;20040;-79
2023/01/17 13:37:42;;;;;;;3.25;0.50;;;8.90;99.90;;;;;;4872615;29;19959;-80
2023/01/17 13:40:35;;;;;;;3.80;0.60;;;9.00;99.90;;;;;;4861781;29;20044;-80
2023/01/17 13:43:27;;;;;;;3.40;0.57;;;8.90;99.90;;;;;;4871900;29;20036;-79
2023/01/17 13:45:55;;;;;;;2.33;0.47;;;8.80;99.90;;;;;;4877879;29;20527;-79
2023/01/17 13:48:21;;;;;;;2.45;0.65;;;8.80;99.90;;;;;;4877142;29;20115;-79
2023/01/17 13:50:48;;;;;;;2.65;0.93;;;8.80;99.90;;;;;;4887967;29;20152;-79
2023/01/17 13:53:44;;;;;;;4.90;0.73;;;8.70;99.90;;;;;;4870903;29;20048;-80
2023/01/17 13:56:26;;;;;;;1.73;0.60;;;8.70;99.90;;;;;;4884653;29;20345;-80
2023/01/17 13:58:55;;;;;;;3.03;0.82;;;8.70;99.90;;;;;;4886818;29;20036;-80
2023/01/17 14:01:21;;;;;;;2.88;0.52;;;8.60;99.90;;;;;;4890618;29;20605;-80
2023/01/17 14:03:50;;;;;;;8.73;1.00;;;8.40;99.90;;;;;;4886386;29;20127;-79
2023/01/17 14:06:45;;;;;;;1.92;0.50;;;8.30;99.90;;;;;;4891417;29;20040;-80
2023/01/17 14:09:19;;;;;;;1.75;0.52;;;8.10;99.90;;;;;;4867477;29;20049;-79
2023/01/17 14:12:18;;;;;;;2.00;0.60;;;8.00;99.90;;;;;;4875412;29;20048;-79
2023/01/17 14:14:47;;;;;;;;;;;7.80;99.90;;;;;;4868919;29;20041;-80
2023/01/17 14:17:21;;;;;;;1.77;0.50;;;7.70;99.90;;;;;;4888420;29;19926;-80
2023/01/17 14:19:59;;;;;;;2.83;0.40;;;7.60;99.90;;;;;;4875153;29;20064;-81
2023/01/17 14:22:56;;;;;;;1.55;0.50;;;7.50;99.90;;;;;;4889052;29;20059;-81
2023/01/17 14:25:28;;;;;;;1.25;0.47;;;7.30;99.90;;;;;;4887608;29;20039;-81
2023/01/17 14:28:00;;;;;;;3.33;0.40;;;7.20;99.90;;;;;;4891833;29;20048;-81
2023/01/17 14:30:33;;;;;;;1.75;0.40;;;7.10;99.90;;;;;;4889414;29;20501;-81
2023/01/17 14:32:59;;;;;;;1.52;0.50;;;7.00;99.90;;;;;;4890475;29;20627;-81
2023/01/17 14:35:40;;;;;;;1.75;0.50;;;7.00;99.90;;;;;;4875961;29;20047;-81
2023/01/17 14:38:22;;;;;;;2.40;0.63;;;6.90;99.90;;;;;;4888468;29;20128;-81
2023/01/17 14:40:54;;;;;;;2.33;0.70;;;6.90;99.90;;;;;;4890975;29;20519;-80
2023/01/17 14:43:23;;;;;;;4.63;0.60;;;6.90;99.90;;;;;;4875772;29;20048;-80
2023/01/17 14:46:00;;;;;;;2.47;0.50;;;6.90;99.90;;;;;;4889879;29;20098;-81